createdAt,value
2023-04-24T01:11:42.812Z,21.80
2023-04-24T01:18:08.532Z,21.80
2023-04-24T01:21:17.484Z,21.80
2023-04-24T01:24:26.900Z,21.80
2023-04-24T01:27:34.784Z,21.80
2023-04-24T01:30:44.000Z,21.80
2023-04-24T01:33:52.028Z,21.80
2023-04-24T01:37:00.160Z,21.80
2023-04-24T01:40:10.635Z,21.80
2023-04-24T01:43:18.464Z,21.80
2023-04-24T01:46:26.481Z,21.80
2023-04-24T01:49:34.786Z,21.80
2023-04-24T01:52:42.841Z,21.80
2023-04-24T01:55:52.623Z,21.80
2023-04-24T01:59:00.667Z,21.80
2023-04-24T02:02:08.823Z,21.80
2023-04-24T02:05:17.201Z,21.80
2023-04-24T02:08:25.257Z,21.80
2023-04-24T02:11:34.787Z,21.80
2023-04-24T02:14:43.310Z,21.80
2023-04-24T02:17:52.119Z,21.80
2023-04-24T02:20:59.954Z,21.80
2023-04-24T02:24:08.036Z,21.80
2023-04-24T02:27:17.501Z,21.80
2023-04-24T02:30:25.720Z,21.80
2023-04-24T02:33:34.688Z,21.80
2023-04-24T02:36:42.803Z,21.80
2023-04-24T02:39:50.685Z,21.80
2023-04-24T02:43:00.121Z,21.80
2023-04-24T02:46:08.292Z,21.80
2023-04-24T02:49:16.758Z,21.80
2023-04-24T02:52:24.706Z,21.80
2023-04-24T02:55:32.778Z,21.80
2023-04-24T02:58:43.184Z,21.80
2023-04-24T03:01:51.240Z,21.80
2023-04-24T03:04:59.097Z,21.80
2023-04-24T03:08:07.150Z,21.80
2023-04-24T03:11:14.870Z,21.80
2023-04-24T03:14:24.906Z,21.80
2023-04-24T03:17:32.996Z,21.80
2023-04-24T03:20:40.896Z,21.80
2023-04-24T03:23:49.317Z,21.80
2023-04-24T03:26:58.088Z,21.80
2023-04-24T03:30:26.137Z,21.80
2023-04-24T03:33:39.467Z,21.80
2023-04-24T03:36:49.499Z,21.80
2023-04-24T03:39:58.005Z,21.80
2023-04-24T03:43:07.785Z,21.80
2023-04-24T03:46:17.655Z,21.80
2023-04-24T03:49:44.251Z,21.80
2023-04-24T03:52:52.392Z,21.80
2023-04-24T03:56:13.976Z,21.80
2023-04-24T03:59:22.856Z,21.80
2023-04-24T04:02:45.051Z,21.80
2023-04-24T04:05:54.101Z,21.70
2023-04-24T04:09:02.300Z,21.70
2023-04-24T04:12:10.799Z,21.70
2023-04-24T04:15:20.496Z,21.70
2023-04-24T04:18:32.612Z,21.70
2023-04-24T04:21:40.571Z,21.70
2023-04-24T04:25:00.416Z,21.70
2023-04-24T04:28:10.048Z,21.60
2023-04-24T04:31:18.244Z,21.60
2023-04-24T04:34:27.543Z,21.60
2023-04-24T04:37:35.575Z,21.60
2023-04-24T04:40:57.298Z,21.60
2023-04-24T04:44:07.445Z,21.50
2023-04-24T04:47:15.482Z,21.50
2023-04-24T04:50:25.339Z,21.50
2023-04-24T04:53:38.307Z,21.50
2023-04-24T04:56:46.163Z,21.50
2023-04-24T04:59:54.287Z,21.50
2023-04-24T05:03:21.367Z,21.50
2023-04-24T05:06:36.853Z,21.50
2023-04-24T05:09:46.810Z,21.50
2023-04-24T05:12:55.810Z,21.50
2023-04-24T05:16:04.216Z,21.50
2023-04-24T05:19:14.988Z,21.50
2023-04-24T05:22:24.958Z,21.50
2023-04-24T05:25:36.267Z,21.50
2023-04-24T05:28:49.316Z,21.50
2023-04-24T05:31:58.162Z,21.50
2023-04-24T05:35:07.459Z,21.50
2023-04-24T05:38:18.806Z,21.50
2023-04-24T05:41:27.023Z,21.50
2023-04-24T05:44:35.045Z,21.50
2023-04-24T05:47:43.045Z,21.50
2023-04-24T05:50:51.028Z,21.60
2023-04-24T05:54:00.234Z,21.50
2023-04-24T05:57:09.066Z,21.60
2023-04-24T06:00:33.588Z,21.60
2023-04-24T06:03:47.160Z,21.60
2023-04-24T06:06:56.918Z,21.50
2023-04-24T06:10:07.096Z,21.50
2023-04-24T06:13:21.799Z,21.50
2023-04-24T06:16:52.565Z,21.50
2023-04-24T06:20:13.493Z,21.50
2023-04-24T06:23:22.023Z,21.50
2023-04-24T06:26:31.659Z,21.50
2023-04-24T06:29:39.451Z,21.60
2023-04-24T06:32:48.413Z,21.60
2023-04-24T06:35:57.228Z,21.60
2023-04-24T06:39:05.358Z,21.60
2023-04-24T06:42:14.510Z,21.60
2023-04-24T06:45:25.086Z,21.60
2023-04-24T06:48:33.242Z,21.60
2023-04-24T06:51:41.595Z,21.60
2023-04-24T06:54:49.705Z,21.60
2023-04-24T06:57:59.216Z,21.60
2023-04-24T07:01:07.444Z,21.60
2023-04-24T07:04:16.621Z,21.60
2023-04-24T07:07:25.581Z,21.70
2023-04-24T07:10:36.664Z,21.70
2023-04-24T07:13:46.101Z,21.70
2023-04-24T07:16:54.282Z,21.70
2023-04-24T07:20:02.466Z,21.70
2023-04-24T07:23:10.604Z,21.70
2023-04-24T07:26:18.808Z,21.70
2023-04-24T07:29:28.514Z,21.70
2023-04-24T07:32:36.768Z,21.70
2023-04-24T07:35:44.868Z,21.70
2023-04-24T07:38:52.939Z,21.70
2023-04-24T07:42:02.526Z,21.70
2023-04-24T07:45:11.897Z,21.70
2023-04-24T07:48:20.216Z,21.70
2023-04-24T07:51:28.670Z,21.70
2023-04-24T07:54:38.072Z,21.70
2023-04-24T07:57:46.069Z,21.60
2023-04-24T08:00:55.637Z,21.60
2023-04-24T08:04:04.068Z,21.60
2023-04-24T08:07:13.907Z,21.60
2023-04-24T08:10:22.765Z,21.60
2023-04-24T08:13:30.690Z,21.50
2023-04-24T08:16:39.929Z,21.50
2023-04-24T08:19:49.511Z,21.50
2023-04-24T08:22:57.552Z,21.50
2023-04-24T08:26:05.351Z,21.50
2023-04-24T08:29:13.521Z,21.50
2023-04-24T08:32:22.808Z,21.40
2023-04-24T08:35:30.595Z,21.40
2023-04-24T08:38:40.231Z,21.40
2023-04-24T08:41:49.790Z,21.40
2023-04-24T08:44:58.890Z,21.40
2023-04-24T08:48:16.582Z,21.40
2023-04-24T08:51:32.474Z,21.40
2023-04-24T08:54:41.060Z,21.40
2023-04-24T08:57:52.652Z,21.40
2023-04-24T09:01:01.581Z,21.40
2023-04-24T09:04:13.325Z,21.40
2023-04-24T09:07:22.254Z,21.40
2023-04-24T09:10:31.537Z,21.40
2023-04-24T09:13:39.629Z,21.40
2023-04-24T09:16:47.854Z,21.40
2023-04-24T09:19:57.327Z,21.40
2023-04-24T09:23:05.252Z,21.40
2023-04-24T09:26:15.011Z,21.40
2023-04-24T09:29:22.903Z,21.40
2023-04-24T09:32:31.155Z,21.40
2023-04-24T09:35:42.912Z,21.50
2023-04-24T09:38:51.033Z,21.50
2023-04-24T09:41:59.628Z,21.50
2023-04-24T09:45:15.045Z,21.50
2023-04-24T09:48:32.632Z,21.50
2023-04-24T09:51:41.822Z,21.50
2023-04-24T09:54:54.746Z,21.50
2023-04-24T09:58:06.061Z,21.50
2023-04-24T10:01:13.986Z,21.50
2023-04-24T10:04:22.886Z,21.50
2023-04-24T10:07:32.132Z,21.50
2023-04-24T10:10:41.395Z,21.50
2023-04-24T10:13:49.326Z,21.60
2023-04-24T10:16:58.946Z,21.60
2023-04-24T10:20:09.329Z,21.60
2023-04-24T10:23:20.343Z,21.60
2023-04-24T10:26:28.735Z,21.60
2023-04-24T10:29:36.790Z,21.60
2023-04-24T10:32:44.979Z,21.60
2023-04-24T10:35:53.007Z,21.60
2023-04-24T10:39:03.290Z,21.70
2023-04-24T10:42:17.351Z,21.70
2023-04-24T10:45:25.601Z,21.70
2023-04-24T10:48:34.188Z,21.70
2023-04-24T10:51:47.292Z,21.70
2023-04-24T10:54:59.181Z,21.70
2023-04-24T10:58:07.204Z,21.70
2023-04-24T11:01:26.403Z,21.70
2023-04-24T11:04:36.148Z,21.80
2023-04-24T11:08:12.513Z,21.80
2023-04-24T11:11:22.648Z,21.80
2023-04-24T11:14:30.587Z,21.80
2023-04-24T11:17:41.291Z,21.80
2023-04-24T11:20:49.398Z,21.80
2023-04-24T11:23:57.264Z,21.80
2023-04-24T11:27:14.823Z,21.80
2023-04-24T11:30:22.771Z,21.80
2023-04-24T11:33:32.270Z,21.80
2023-04-24T11:36:40.040Z,21.80
2023-04-24T11:39:48.291Z,21.80
2023-04-24T11:42:57.744Z,21.80
2023-04-24T11:46:07.353Z,21.80
2023-04-24T11:49:15.497Z,21.80
2023-04-24T11:52:23.538Z,21.90
2023-04-24T11:55:31.755Z,21.90
2023-04-24T11:58:41.464Z,21.90
2023-04-24T12:01:49.521Z,21.90
2023-04-24T12:04:57.780Z,21.90
2023-04-24T12:08:06.326Z,21.90
2023-04-24T12:11:16.267Z,21.90
2023-04-24T12:14:26.215Z,21.90
2023-04-24T12:17:34.848Z,21.90
2023-04-24T12:20:42.759Z,21.90
2023-04-24T12:23:51.693Z,21.90
2023-04-24T12:27:02.413Z,21.90
2023-04-24T12:30:15.181Z,21.90
2023-04-24T12:33:23.540Z,21.90
2023-04-24T12:36:32.149Z,21.80
2023-04-24T12:39:40.496Z,21.90
2023-04-24T12:42:58.186Z,21.90
2023-04-24T12:46:07.499Z,21.90
2023-04-24T12:49:15.328Z,21.90
2023-04-24T12:52:24.574Z,21.90
2023-04-24T12:55:32.580Z,21.90
2023-04-24T12:58:40.780Z,21.90
2023-04-24T13:01:50.260Z,21.90
2023-04-24T13:04:58.392Z,21.90
2023-04-24T13:08:06.424Z,21.90
2023-04-24T13:11:14.402Z,21.90
2023-04-24T13:14:22.396Z,21.90
2023-04-24T13:17:31.552Z,21.90
2023-04-24T13:20:39.330Z,21.90
2023-04-24T13:23:47.391Z,21.90
2023-04-24T13:26:55.398Z,21.90
2023-04-24T13:30:03.898Z,21.90
2023-04-24T13:33:13.610Z,21.90
2023-04-24T13:36:21.436Z,21.90
2023-04-24T13:39:29.267Z,21.90
2023-04-24T13:42:37.481Z,21.90
2023-04-24T13:45:45.518Z,21.90
2023-04-24T13:48:54.709Z,22.00
2023-04-24T13:52:03.754Z,21.90
2023-04-24T13:55:11.847Z,21.90
2023-04-24T13:58:19.658Z,22.00
2023-04-24T14:01:27.560Z,22.00
2023-04-24T14:04:37.156Z,22.00
2023-04-24T14:07:45.579Z,22.00
2023-04-24T14:10:53.691Z,22.00
2023-04-24T14:14:01.837Z,22.00
2023-04-24T14:17:10.228Z,22.00
2023-04-24T14:20:20.051Z,22.00
2023-04-24T14:23:27.847Z,22.00
2023-04-24T14:26:36.266Z,22.00
2023-04-24T14:29:46.093Z,22.10
2023-04-24T14:32:54.040Z,22.00
2023-04-24T14:36:05.345Z,22.10
2023-04-24T14:39:13.382Z,22.10
2023-04-24T14:42:21.245Z,22.20
2023-04-24T14:45:29.123Z,22.20
2023-04-24T14:48:36.975Z,22.20
2023-04-24T14:51:46.083Z,22.20
2023-04-24T14:54:53.976Z,22.20
2023-04-24T14:58:02.604Z,22.30
2023-04-24T15:01:10.579Z,22.30
2023-04-24T15:04:18.436Z,22.40
2023-04-24T15:07:27.791Z,22.40
2023-04-24T15:10:36.110Z,22.40
2023-04-24T15:13:46.245Z,22.40
2023-04-24T15:16:54.555Z,22.40
2023-04-24T15:20:03.800Z,22.50
2023-04-24T15:23:13.376Z,22.50
2023-04-24T15:26:21.074Z,22.50
2023-04-24T15:29:29.198Z,22.50
2023-04-24T15:32:37.090Z,22.40
2023-04-24T15:35:45.157Z,22.50
2023-04-24T15:38:54.620Z,22.50
2023-04-24T15:42:02.638Z,22.50
2023-04-24T15:45:11.609Z,22.50
2023-04-24T15:48:19.526Z,22.50
2023-04-24T15:51:27.627Z,22.50
2023-04-24T15:54:39.141Z,22.50
2023-04-24T15:57:46.998Z,22.50
2023-04-24T16:00:55.565Z,22.50
2023-04-24T16:04:03.995Z,22.40
2023-04-24T16:07:12.126Z,22.50
2023-04-24T16:10:21.531Z,22.40
2023-04-24T16:13:29.749Z,22.40
2023-04-24T16:16:37.799Z,22.40
2023-04-24T16:19:45.734Z,22.40
2023-04-24T16:22:53.433Z,22.40
2023-04-24T16:26:02.914Z,22.40
2023-04-24T16:29:10.757Z,22.40
2023-04-24T16:32:18.803Z,22.40
2023-04-24T16:35:26.758Z,22.40
2023-04-24T16:38:34.830Z,22.30
2023-04-24T16:41:45.211Z,22.20
2023-04-24T16:44:53.299Z,22.10
2023-04-24T16:48:02.885Z,22.10
2023-04-24T16:51:10.793Z,22.10
2023-04-24T16:54:19.392Z,22.10
2023-04-24T16:57:29.002Z,22.10
2023-04-24T17:00:37.922Z,22.10
2023-04-24T17:03:46.708Z,22.10
2023-04-24T17:06:54.978Z,22.10
2023-04-24T17:10:03.165Z,22.10
2023-04-24T17:13:14.409Z,22.10
2023-04-24T17:16:22.760Z,22.10
2023-04-24T17:19:31.299Z,22.10
2023-04-24T17:22:39.108Z,22.10
2023-04-24T17:25:47.172Z,22.10
2023-04-24T17:28:56.581Z,22.20
2023-04-24T17:32:04.760Z,22.10
2023-04-24T17:35:13.238Z,22.20
2023-04-24T17:38:21.128Z,22.20
2023-04-24T17:41:29.006Z,22.10
2023-04-24T17:44:38.466Z,22.10
2023-04-24T17:47:46.540Z,22.10
2023-04-24T17:50:54.573Z,22.10
2023-04-24T17:54:02.754Z,22.10
2023-04-24T17:57:10.852Z,22.10
2023-04-24T18:00:20.403Z,22.10
2023-04-24T18:03:28.279Z,22.10
2023-04-24T18:06:36.472Z,22.10
2023-04-24T18:09:44.470Z,22.10
2023-04-24T18:12:52.548Z,22.10
2023-04-24T18:16:02.009Z,22.10
2023-04-24T18:19:10.033Z,22.10
2023-04-24T18:22:18.143Z,22.10
2023-04-24T18:25:07.144Z,22.10
2023-04-24T18:27:55.859Z,22.10
2023-04-24T18:30:43.451Z,22.00
2023-04-24T18:33:33.582Z,22.00
2023-04-24T18:36:21.712Z,22.00
2023-04-24T18:39:09.337Z,22.00
2023-04-24T18:41:57.165Z,22.00
2023-04-24T18:44:44.622Z,22.00
2023-04-24T18:47:32.570Z,22.00
2023-04-24T18:50:22.057Z,22.00
2023-04-24T18:53:12.953Z,22.00
2023-04-24T18:56:00.981Z,22.00
2023-04-24T18:58:48.921Z,22.00
2023-04-24T19:01:37.103Z,22.00
2023-04-24T19:04:24.708Z,22.00
2023-04-24T19:07:14.003Z,22.00
2023-04-24T19:10:01.834Z,22.00
2023-04-24T19:12:56.255Z,22.00
2023-04-24T19:15:44.107Z,22.00
2023-04-24T19:18:32.050Z,22.00
2023-04-24T19:21:20.130Z,22.00
2023-04-24T19:24:10.007Z,22.00
2023-04-24T19:26:58.161Z,22.00
2023-04-24T19:29:46.018Z,22.00
2023-04-24T19:32:52.393Z,22.00
2023-04-24T19:36:00.581Z,22.00
2023-04-24T19:39:09.950Z,22.00
2023-04-24T19:42:21.154Z,22.00
2023-04-24T19:45:33.480Z,22.10
2023-04-24T19:48:41.585Z,22.10
2023-04-24T19:51:49.877Z,22.10
2023-04-24T19:54:59.397Z,22.10
2023-04-24T19:58:07.294Z,22.10
2023-04-24T20:01:15.688Z,22.10
2023-04-24T20:04:24.103Z,22.10
2023-04-24T20:07:12.155Z,22.10
2023-04-24T20:10:01.162Z,22.10
2023-04-24T20:12:48.619Z,22.10
2023-04-24T20:15:36.273Z,22.10
2023-04-24T20:18:24.261Z,22.10
2023-04-24T20:21:11.955Z,22.10
2023-04-24T20:24:00.201Z,22.10
2023-04-24T20:26:49.217Z,22.10
2023-04-24T20:29:37.203Z,22.20
2023-04-24T20:32:25.246Z,22.20
2023-04-24T20:35:13.316Z,22.20
2023-04-24T20:38:01.669Z,22.20
2023-04-24T20:40:57.629Z,22.20
2023-04-24T20:43:48.073Z,22.20
2023-04-24T20:46:35.983Z,22.20
2023-04-24T20:49:23.891Z,22.20
2023-04-24T20:52:11.529Z,22.20
2023-04-24T20:54:59.247Z,22.20
2023-04-24T20:57:47.169Z,22.20
2023-04-24T21:00:36.726Z,22.20
2023-04-24T21:03:24.620Z,22.20
2023-04-24T21:06:12.586Z,22.20
2023-04-24T21:09:00.881Z,22.20
2023-04-24T21:11:48.422Z,22.20
2023-04-24T21:14:36.533Z,22.20
2023-04-24T21:17:25.835Z,22.20
2023-04-24T21:20:14.005Z,22.20
2023-04-24T21:23:01.839Z,22.20
2023-04-24T21:25:49.562Z,22.20
2023-04-24T21:28:37.812Z,22.10
2023-04-24T21:31:26.144Z,22.10
2023-04-24T21:34:15.153Z,22.10
2023-04-24T21:37:02.770Z,22.10
2023-04-24T21:39:50.443Z,22.10
2023-04-24T21:42:38.223Z,22.10
2023-04-24T21:45:44.962Z,22.10
2023-04-24T21:48:52.875Z,22.10
2023-04-24T21:52:02.330Z,22.00
2023-04-24T21:55:10.584Z,22.00
2023-04-24T21:58:18.841Z,22.00
2023-04-24T22:01:26.655Z,22.00
2023-04-24T22:04:34.860Z,22.00
2023-04-24T22:07:46.708Z,22.00
2023-04-24T22:10:56.109Z,22.00
2023-04-24T22:14:04.136Z,22.00
2023-04-24T22:17:12.191Z,21.90
2023-04-24T22:20:21.712Z,21.90
2023-04-24T22:23:31.003Z,21.90
2023-04-24T22:26:38.907Z,21.90
2023-04-24T22:29:46.929Z,21.90
2023-04-24T22:32:54.890Z,21.90
2023-04-24T22:36:02.778Z,21.90
2023-04-24T22:39:15.664Z,21.90
2023-04-24T22:42:23.810Z,21.90
2023-04-24T22:45:32.185Z,21.90
2023-04-24T22:48:40.308Z,21.90
2023-04-24T22:51:48.195Z,21.90
2023-04-24T22:54:57.690Z,21.90
2023-04-24T22:58:06.254Z,21.90
2023-04-24T23:01:14.532Z,21.90
2023-04-24T23:04:22.938Z,21.90
2023-04-24T23:07:31.084Z,21.90
2023-04-24T23:10:40.361Z,21.90
2023-04-24T23:13:49.588Z,22.00
2023-04-24T23:16:58.282Z,22.00
2023-04-24T23:20:07.846Z,22.00
2023-04-24T23:23:16.048Z,22.00
2023-04-24T23:26:25.677Z,22.00
2023-04-24T23:29:33.675Z,22.00
2023-04-24T23:32:44.215Z,22.00
2023-04-24T23:35:52.672Z,22.00
2023-04-24T23:39:01.200Z,22.00
2023-04-24T23:42:10.512Z,22.00
2023-04-24T23:45:18.731Z,22.00
2023-04-24T23:48:26.413Z,22.00
2023-04-24T23:51:34.169Z,22.00
2023-04-24T23:54:41.920Z,22.00
2023-04-24T23:57:51.351Z,22.00
